Time;durP1;ratioP1;P1;durP2;ratioP2;P2;SDS_P1;SDS_P2;PMS_P1;PMS_P2;Temp;Humidity;BMP_temperature;BMP_pressure;BME280_temperature;BME280_humidity;BME280_pressure;Samples;Min_cycle;Max_cycle;Signal;HPM_P1;HPM_P2
2022/05/11 00:00:45;;;;;;;17.03;15.37;;;;;;;;;;5031562;28;20204;-72
2022/05/11 00:03:15;;;;;;;16.83;14.97;;;;;;;;;;5032603;28;20204;-72
2022/05/11 00:05:43;;;;;;;16.20;14.50;;;;;;;;;;5032505;28;20196;-73
2022/05/11 00:08:12;;;;;;;17.67;14.70;;;;;;;;;;5031114;28;20228;-73
2022/05/11 00:10:40;;;;;;;16.50;14.77;;;;;;;;;;5032316;28;20258;-72
2022/05/11 00:13:09;;;;;;;14.90;13.37;;;;;;;;;;4681367;28;10000354;-73
2022/05/11 00:15:37;;;;;;;13.90;12.23;;;;;;;;;;5029948;28;20486;-73
2022/05/11 00:18:06;;;;;;;15.17;12.70;;;;;;;;;;5033210;28;20235;-73
2022/05/11 00:20:37;;;;;;;14.77;12.87;;;;;;;;;;5032528;28;20266;-72
2022/05/11 00:23:06;;;;;;;15.27;12.63;;;;;;;;;;5030897;28;20212;-72
2022/05/11 00:25:34;;;;;;;12.97;11.67;;;;;;;;;;5032810;28;20207;-72
2022/05/11 00:28:03;;;;;;;13.70;11.80;;;;;;;;;;5032883;28;20570;-72
2022/05/11 00:30:32;;;;;;;12.27;10.80;;;;;;;;;;5032718;28;20662;-72
2022/05/11 00:33:01;;;;;;;12.10;10.77;;;;;;;;;;5028476;28;20628;-72
2022/05/11 00:35:33;;;;;;;12.77;10.30;;;;;;;;;;5025972;28;20232;-72
2022/05/11 00:38:03;;;;;;;10.70;9.60;;;;;;;;;;5032702;28;20766;-72
2022/05/11 00:40:31;;;;;;;10.73;9.73;;;;;;;;;;5033009;28;20634;-72
2022/05/11 00:43:00;;;;;;;11.23;8.43;;;;;;;;;;5030111;28;20265;-72
2022/05/11 00:45:29;;;;;;;9.30;8.40;;;;;;;;;;5031656;28;20203;-73
2022/05/11 00:47:59;;;;;;;10.03;9.03;;;;;;;;;;5032661;28;20234;-72
2022/05/11 00:50:29;;;;;;;9.20;8.10;;;;;;;;;;5015277;28;20254;-72
2022/05/11 00:52:59;;;;;;;8.67;7.83;;;;;;;;;;5015533;28;20266;-72
2022/05/11 00:55:32;;;;;;;10.30;7.73;;;;;;;;;;5032646;28;20220;-72
2022/05/11 00:58:01;;;;;;;9.00;7.20;;;;;;;;;;5030905;28;20224;-72
2022/05/11 01:00:30;;;;;;;9.90;7.23;;;;;;;;;;5031628;28;20216;-72
2022/05/11 01:03:02;;;;;;;8.57;7.30;;;;;;;;;;5032096;28;20208;-72
2022/05/11 01:05:30;;;;;;;7.73;7.03;;;;;;;;;;5034417;28;20207;-72
2022/05/11 01:08:00;;;;;;;7.53;6.63;;;;;;;;;;5048695;28;20265;-72
2022/05/11 01:10:32;;;;;;;10.60;7.60;;;;;;;;;;5035400;28;20250;-72
2022/05/11 01:13:01;;;;;;;8.33;7.50;;;;;;;;;;5029378;28;20329;-73
2022/05/11 01:15:31;;;;;;;10.43;7.07;;;;;;;;;;5031072;28;20212;-73
2022/05/11 01:18:00;;;;;;;8.53;7.57;;;;;;;;;;5031762;28;20231;-73
2022/05/11 01:20:29;;;;;;;9.70;7.37;;;;;;;;;;5032073;28;20230;-72
2022/05/11 01:23:01;;;;;;;8.07;7.23;;;;;;;;;;5031487;28;20204;-73
2022/05/11 01:25:34;;;;;;;8.67;6.93;;;;;;;;;;5031929;28;20625;-72
2022/05/11 01:28:04;;;;;;;7.63;6.93;;;;;;;;;;5031755;28;20273;-73
2022/05/11 01:30:33;;;;;;;7.53;6.80;;;;;;;;;;5032570;28;20219;-72
2022/05/11 01:33:01;;;;;;;8.67;6.87;;;;;;;;;;5027257;28;20204;-73
2022/05/11 01:35:34;;;;;;;8.60;7.27;;;;;;;;;;5029974;28;20270;-73
2022/05/11 01:38:08;;;;;;;8.20;6.90;;;;;;;;;;5028227;28;20651;-73
2022/05/11 01:40:38;;;;;;;10.67;7.37;;;;;;;;;;5022814;28;20215;-73
2022/05/11 01:43:07;;;;;;;11.57;6.97;;;;;;;;;;5027126;28;20234;-73
2022/05/11 01:45:36;;;;;;;10.10;7.03;;;;;;;;;;5030568;28;20211;-72
2022/05/11 01:48:04;;;;;;;8.70;7.07;;;;;;;;;;5017436;28;20311;-72
2022/05/11 01:50:33;;;;;;;9.77;7.10;;;;;;;;;;5031043;28;20232;-72
2022/05/11 01:53:01;;;;;;;10.03;6.70;;;;;;;;;;5026541;28;20207;-73
2022/05/11 01:55:30;;;;;;;9.83;7.30;;;;;;;;;;5012572;28;20219;-73
2022/05/11 01:58:00;;;;;;;7.87;6.13;;;;;;;;;;5029218;28;20227;-73
2022/05/11 02:00:28;;;;;;;6.90;6.30;;;;;;;;;;5029988;28;20647;-73
2022/05/11 02:02:57;;;;;;;7.20;6.50;;;;;;;;;;5029549;28;20330;-73
2022/05/11 02:08:11;;;;;;;8.40;6.90;;;;;;;;;;5031062;28;20228;-73
2022/05/11 02:10:40;;;;;;;8.30;6.60;;;;;;;;;;5031212;28;20211;-72
2022/05/11 02:13:10;;;;;;;9.13;6.90;;;;;;;;;;5030172;28;20204;-72
2022/05/11 02:15:38;;;;;;;7.20;6.60;;;;;;;;;;5028878;28;20265;-72
2022/05/11 02:18:07;;;;;;;7.60;6.37;;;;;;;;;;5029626;28;20227;-72
2022/05/11 02:20:35;;;;;;;7.43;6.73;;;;;;;;;;5030623;28;20212;-72
2022/05/11 02:23:04;;;;;;;8.60;7.00;;;;;;;;;;5031148;28;20208;-72
2022/05/11 02:25:32;;;;;;;7.37;6.50;;;;;;;;;;5031148;28;20262;-72
2022/05/11 02:28:01;;;;;;;8.00;6.83;;;;;;;;;;5033344;28;20749;-72
2022/05/11 02:30:32;;;;;;;8.47;6.40;;;;;;;;;;5029634;28;20265;-73
2022/05/11 02:33:01;;;;;;;8.43;6.17;;;;;;;;;;5030406;28;20211;-72
2022/05/11 02:35:29;;;;;;;7.53;6.77;;;;;;;;;;5029872;28;20204;-72
2022/05/11 02:37:59;;;;;;;14.57;7.17;;;;;;;;;;5029746;28;20231;-73
2022/05/11 02:40:30;;;;;;;6.87;6.27;;;;;;;;;;5030024;28;20215;-72
2022/05/11 02:43:01;;;;;;;7.33;6.20;;;;;;;;;;5030045;28;20196;-72
2022/05/11 02:45:32;;;;;;;7.80;6.13;;;;;;;;;;5020312;28;20294;-72
2022/05/11 02:48:02;;;;;;;7.90;6.07;;;;;;;;;;5029101;28;20732;-71
2022/05/11 02:50:32;;;;;;;6.30;5.70;;;;;;;;;;5029176;28;20214;-73
2022/05/11 02:53:02;;;;;;;6.57;5.67;;;;;;;;;;5029301;28;20258;-71
2022/05/11 02:55:31;;;;;;;8.13;6.23;;;;;;;;;;5030665;28;20222;-72
2022/05/11 02:58:00;;;;;;;5.97;5.47;;;;;;;;;;5029712;28;20220;-72
2022/05/11 03:00:28;;;;;;;7.97;6.50;;;;;;;;;;5029538;28;20208;-72
2022/05/11 03:02:58;;;;;;;7.20;6.30;;;;;;;;;;5029707;28;20551;-71
2022/05/11 03:05:27;;;;;;;7.87;6.30;;;;;;;;;;5012884;28;20212;-72
2022/05/11 03:07:55;;;;;;;11.13;6.10;;;;;;;;;;5029519;28;20567;-72
2022/05/11 03:10:23;;;;;;;7.07;6.37;;;;;;;;;;5028984;28;20732;-71
2022/05/11 03:12:52;;;;;;;7.33;6.53;;;;;;;;;;5029030;28;20207;-72
2022/05/11 03:15:21;;;;;;;8.30;6.70;;;;;;;;;;5029931;28;20266;-71
2022/05/11 03:17:49;;;;;;;7.33;6.50;;;;;;;;;;5029081;28;20231;-72
2022/05/11 03:20:23;;;;;;;7.43;6.73;;;;;;;;;;5029940;28;20208;-71
2022/05/11 03:22:52;;;;;;;6.93;6.23;;;;;;;;;;5029335;28;20211;-72
2022/05/11 03:25:21;;;;;;;8.17;5.90;;;;;;;;;;5030581;28;20215;-72
2022/05/11 03:27:49;;;;;;;7.00;6.30;;;;;;;;;;5024978;28;20227;-72
2022/05/11 03:30:18;;;;;;;6.90;6.30;;;;;;;;;;5029111;28;20215;-72
2022/05/11 03:35:34;;;;;;;9.03;6.40;;;;;;;;;;5029437;28;20762;-72
2022/05/11 03:38:03;;;;;;;7.63;6.87;;;;;;;;;;5029925;28;20223;-72
2022/05/11 03:40:31;;;;;;;8.67;6.80;;;;;;;;;;5035892;28;20246;-72
2022/05/11 03:42:59;;;;;;;6.77;6.07;;;;;;;;;;5030805;28;20541;-72
2022/05/11 03:45:28;;;;;;;7.73;6.83;;;;;;;;;;5033506;28;20203;-73
2022/05/11 03:47:56;;;;;;;7.77;7.07;;;;;;;;;;5031154;28;20216;-72
2022/05/11 03:50:25;;;;;;;7.23;6.53;;;;;;;;;;5020791;28;20212;-72
2022/05/11 03:52:56;;;;;;;7.70;6.90;;;;;;;;;;5019401;28;20196;-72
2022/05/11 03:55:24;;;;;;;7.43;6.73;;;;;;;;;;5033176;28;20228;-72
2022/05/11 03:57:53;;;;;;;8.00;6.60;;;;;;;;;;5033603;28;20231;-72
2022/05/11 04:00:23;;;;;;;6.73;6.10;;;;;;;;;;5037007;28;20214;-70
2022/05/11 04:02:52;;;;;;;7.03;6.33;;;;;;;;;;5038245;28;20220;-72
2022/05/11 04:05:21;;;;;;;8.73;6.30;;;;;;;;;;5029502;28;20665;-72
2022/05/11 04:07:49;;;;;;;7.00;6.40;;;;;;;;;;5031643;28;20224;-71
2022/05/11 04:10:19;;;;;;;7.93;6.40;;;;;;;;;;5032320;28;20215;-72
2022/05/11 04:12:48;;;;;;;7.43;6.50;;;;;;;;;;5032127;28;20249;-71
2022/05/11 04:15:17;;;;;;;8.47;6.57;;;;;;;;;;5034285;28;20651;-71
2022/05/11 04:17:46;;;;;;;8.07;6.63;;;;;;;;;;5035187;28;20627;-71
2022/05/11 04:20:15;;;;;;;8.10;7.30;;;;;;;;;;5034710;28;20204;-71
2022/05/11 04:22:47;;;;;;;7.23;6.53;;;;;;;;;;5034227;28;20208;-72
2022/05/11 04:25:16;;;;;;;7.90;6.93;;;;;;;;;;5034690;28;20207;-71
2022/05/11 04:27:46;;;;;;;7.73;6.97;;;;;;;;;;5034805;28;20223;-71
2022/05/11 04:30:16;;;;;;;7.90;7.10;;;;;;;;;;5032073;28;20285;-71
2022/05/11 04:32:47;;;;;;;9.13;7.13;;;;;;;;;;5021035;28;20212;-72
2022/05/11 04:35:16;;;;;;;7.60;6.90;;;;;;;;;;5032524;28;20611;-70
2022/05/11 04:37:45;;;;;;;10.07;6.97;;;;;;;;;;5032065;28;20666;-71
2022/05/11 04:40:15;;;;;;;7.50;6.80;;;;;;;;;;5029233;28;20216;-72
2022/05/11 04:42:45;;;;;;;12.83;7.03;;;;;;;;;;5033674;28;20692;-72
2022/05/11 04:45:14;;;;;;;9.33;7.13;;;;;;;;;;5032906;28;20201;-72
2022/05/11 04:47:43;;;;;;;8.03;7.23;;;;;;;;;;5032907;28;20286;-71
2022/05/11 04:50:12;;;;;;;10.23;7.10;;;;;;;;;;5034172;28;20199;-72
2022/05/11 04:52:46;;;;;;;7.60;6.83;;;;;;;;;;5030857;28;20204;-71
2022/05/11 04:55:14;;;;;;;9.47;6.93;;;;;;;;;;5015638;28;20660;-71
2022/05/11 04:57:43;;;;;;;9.53;7.23;;;;;;;;;;5022365;28;20224;-71
2022/05/11 05:00:13;;;;;;;7.93;6.50;;;;;;;;;;5033512;28;20257;-71
2022/05/11 05:02:42;;;;;;;7.57;6.87;;;;;;;;;;5031569;28;20675;-71
2022/05/11 05:05:12;;;;;;;8.00;7.20;;;;;;;;;;5046508;28;20288;-72
2022/05/11 05:07:41;;;;;;;7.83;6.77;;;;;;;;;;5034031;28;20251;-72
2022/05/11 05:10:12;;;;;;;8.37;7.40;;;;;;;;;;5031550;28;20204;-72
2022/05/11 05:12:41;;;;;;;8.77;7.53;;;;;;;;;;5029655;28;20620;-72
2022/05/11 05:15:10;;;;;;;8.50;7.47;;;;;;;;;;5034103;28;20200;-70
2022/05/11 05:17:41;;;;;;;7.50;6.80;;;;;;;;;;5027623;28;20238;-71
2022/05/11 05:20:11;;;;;;;7.47;6.70;;;;;;;;;;5034282;28;20200;-71
2022/05/11 05:22:39;;;;;;;8.90;6.87;;;;;;;;;;5035006;28;20214;-72
2022/05/11 05:25:08;;;;;;;8.73;7.33;;;;;;;;;;5033917;28;20794;-72
2022/05/11 05:27:37;;;;;;;8.47;7.53;;;;;;;;;;5033276;28;20216;-72
2022/05/11 05:32:54;;;;;;;8.00;7.10;;;;;;;;;;5030262;28;20227;-72
2022/05/11 05:35:23;;;;;;;7.87;7.17;;;;;;;;;;5032801;28;20211;-70
2022/05/11 05:37:51;;;;;;;8.83;7.93;;;;;;;;;;5034546;28;20468;-70
2022/05/11 05:40:20;;;;;;;8.47;7.53;;;;;;;;;;5031603;28;20257;-70
2022/05/11 05:42:48;;;;;;;8.93;7.77;;;;;;;;;;5032896;28;20208;-72
2022/05/11 05:45:17;;;;;;;10.07;8.03;;;;;;;;;;5032476;28;20211;-73
2022/05/11 05:47:45;;;;;;;9.73;7.93;;;;;;;;;;5030238;28;20219;-71
2022/05/11 05:50:15;;;;;;;11.50;7.87;;;;;;;;;;5036407;28;20282;-71
2022/05/11 05:52:45;;;;;;;9.97;7.80;;;;;;;;;;5033012;28;20685;-70
2022/05/11 05:55:15;;;;;;;9.10;7.83;;;;;;;;;;5033970;28;20207;-73
2022/05/11 05:57:44;;;;;;;8.53;7.70;;;;;;;;;;5034061;28;20227;-72
2022/05/11 06:00:13;;;;;;;14.30;7.77;;;;;;;;;;5033642;28;20215;-73
2022/05/11 06:02:42;;;;;;;10.30;8.43;;;;;;;;;;5030659;28;20246;-72
2022/05/11 06:05:11;;;;;;;9.53;7.23;;;;;;;;;;5032639;28;20231;-71
2022/05/11 06:07:41;;;;;;;10.50;8.00;;;;;;;;;;5032236;28;20228;-71
2022/05/11 06:10:10;;;;;;;9.90;8.87;;;;;;;;;;5033690;28;20243;-71
2022/05/11 06:12:39;;;;;;;11.47;9.07;;;;;;;;;;5033295;28;20203;-72
2022/05/11 06:15:08;;;;;;;10.48;7.97;;;;;;;;;;5031531;28;20270;-71
2022/05/11 06:17:37;;;;;;;8.80;7.90;;;;;;;;;;5033457;28;20614;-72
2022/05/11 06:20:08;;;;;;;9.35;8.18;;;;;;;;;;5033436;28;20764;-71
2022/05/11 06:22:37;;;;;;;10.52;8.18;;;;;;;;;;5030739;28;20208;-72
2022/05/11 06:25:08;;;;;;;12.03;9.07;;;;;;;;;;5034030;28;20672;-72
2022/05/11 06:27:37;;;;;;;8.63;7.80;;;;;;;;;;5033600;28;20313;-70
2022/05/11 06:30:06;;;;;;;10.02;8.02;;;;;;;;;;5032693;28;20250;-72
2022/05/11 06:32:36;;;;;;;8.70;7.72;;;;;;;;;;5033214;28;20216;-72
2022/05/11 06:35:04;;;;;;;9.55;7.47;;;;;;;;;;5033177;28;20208;-71
2022/05/11 06:37:33;;;;;;;10.60;8.02;;;;;;;;;;5032659;28;20276;-71
2022/05/11 06:40:03;;;;;;;9.18;7.82;;;;;;;;;;5037205;28;20241;-72
2022/05/11 06:42:34;;;;;;;9.98;7.90;;;;;;;;;;5033085;28;20258;-71
2022/05/11 06:45:05;;;;;;;10.32;7.93;;;;;;;;;;5032808;28;20208;-72
2022/05/11 06:47:34;;;;;;;9.90;7.72;;;;;;;;;;5033061;28;20306;-71
2022/05/11 06:50:03;;;;;;;11.07;7.60;;;;;;;;;;5032405;28;20211;-71
2022/05/11 06:52:32;;;;;;;9.38;7.88;;;;;;;;;;5032579;28;20604;-72
2022/05/11 07:00:34;;;;;;;7.82;6.60;;;;;;;;;;5035306;28;20231;-72
2022/05/11 07:03:02;;;;;;;7.43;6.72;;;;;;;;;;5032366;28;20211;-71
2022/05/11 07:05:36;;;;;;;8.35;6.60;;;;;;;;;;5031877;28;20204;-72
2022/05/11 07:08:05;;;;;;;10.10;7.03;;;;;;;;;;5033061;28;20227;-71
2022/05/11 07:10:38;;;;;;;7.70;6.57;;;;;;;;;;5031936;28;20207;-71
2022/05/11 07:13:08;;;;;;;11.85;6.93;;;;;;;;;;5031697;28;20261;-72
2022/05/11 07:15:36;;;;;;;7.20;6.50;;;;;;;;;;5040179;28;20285;-72
2022/05/11 07:18:07;;;;;;;7.60;6.15;;;;;;;;;;5030952;28;20307;-70
2022/05/11 07:20:37;;;;;;;8.68;5.47;;;;;;;;;;5031492;28;20325;-72
2022/05/11 07:23:06;;;;;;;6.05;5.07;;;;;;;;;;5032242;28;20204;-71
2022/05/11 07:25:35;;;;;;;5.50;4.72;;;;;;;;;;5033720;28;20211;-72
2022/05/11 07:28:04;;;;;;;6.47;4.13;;;;;;;;;;5036692;28;20231;-72
2022/05/11 07:30:35;;;;;;;6.00;4.65;;;;;;;;;;5036306;28;20234;-71
2022/05/11 07:33:08;;;;;;;8.60;4.90;;;;;;;;;;5027507;28;20646;-73
2022/05/11 07:35:36;;;;;;;6.07;4.47;;;;;;;;;;5034958;28;20208;-72
2022/05/11 07:38:08;;;;;;;6.00;4.05;;;;;;;;;;5036385;28;20220;-72
2022/05/11 07:40:36;;;;;;;7.90;4.35;;;;;;;;;;5040845;28;20235;-72
2022/05/11 07:43:05;;;;;;;6.15;4.18;;;;;;;;;;5036132;28;20564;-72
2022/05/11 07:45:36;;;;;;;4.93;4.43;;;;;;;;;;5030570;28;20262;-71
2022/05/11 07:48:05;;;;;;;7.07;3.75;;;;;;;;;;5036187;28;20262;-72
2022/05/11 07:50:33;;;;;;;5.22;3.97;;;;;;;;;;5035159;28;20643;-71
2022/05/11 07:53:02;;;;;;;6.00;3.70;;;;;;;;;;5034600;28;20199;-71
2022/05/11 07:55:33;;;;;;;5.75;3.72;;;;;;;;;;5035437;28;20261;-72
2022/05/11 08:00:49;;;;;;;5.03;3.10;;;;;;;;;;5036313;28;20224;-70
2022/05/11 08:03:18;;;;;;;4.45;2.95;;;;;;;;;;5035938;28;20227;-72
2022/05/11 08:05:46;;;;;;;3.10;2.80;;;;;;;;;;5035119;28;20683;-73
2022/05/11 08:08:15;;;;;;;6.15;3.30;;;;;;;;;;5036072;28;20243;-72
2022/05/11 08:10:44;;;;;;;5.40;2.92;;;;;;;;;;5036152;28;20207;-72
2022/05/11 08:13:13;;;;;;;4.25;3.00;;;;;;;;;;5034194;28;20605;-72
2022/05/11 08:15:43;;;;;;;5.32;3.30;;;;;;;;;;5035820;28;20204;-72
2022/05/11 08:18:15;;;;;;;5.68;3.30;;;;;;;;;;5036027;28;20219;-73
2022/05/11 08:20:46;;;;;;;5.13;3.38;;;;;;;;;;5035389;28;20224;-72
2022/05/11 08:23:15;;;;;;;5.07;3.70;;;;;;;;;;5036001;28;20203;-70
2022/05/11 08:25:46;;;;;;;5.40;4.00;;;;;;;;;;5035644;28;20204;-72
2022/05/11 08:28:15;;;;;;;6.50;4.40;;;;;;;;;;5015865;28;20251;-73
2022/05/11 08:33:33;;;;;;;4.45;3.40;;;;;;;;;;5025474;28;20211;-72
2022/05/11 08:36:22;;;;;;;5.60;3.95;;;;;;;;;;5035254;28;20196;-71
2022/05/11 08:38:52;;;;;;;4.78;3.75;;;;;;;;;;5034746;28;20230;-71
2022/05/11 08:41:27;;;;;;;6.07;4.07;;;;;;;;;;5050056;28;20230;-72
2022/05/11 08:43:56;;;;;;;6.03;3.70;;;;;;;;;;5035250;28;20192;-72
2022/05/11 08:46:31;;;;;;;5.53;4.13;;;;;;;;;;5035422;28;20286;-72
2022/05/11 08:49:02;;;;;;;6.32;4.07;;;;;;;;;;5034129;28;20227;-71
2022/05/11 08:51:32;;;;;;;6.55;4.40;;;;;;;;;;5035004;28;20200;-73
2022/05/11 08:54:08;;;;;;;7.43;3.95;;;;;;;;;;5035154;28;20204;-72
2022/05/11 08:56:37;;;;;;;4.60;4.20;;;;;;;;;;5035568;28;20203;-71
2022/05/11 08:59:16;;;;;;;6.13;3.72;;;;;;;;;;5035022;28;20658;-72
2022/05/11 09:01:50;;;;;;;5.50;4.28;;;;;;;;;;5035494;28;20227;-73
2022/05/11 09:04:24;;;;;;;5.13;3.70;;;;;;;;;;5035495;28;20236;-72
2022/05/11 09:06:56;;;;;;;5.05;4.40;;;;;;;;;;5031912;28;20218;-71
2022/05/11 09:09:24;;;;;;;5.10;4.60;;;;;;;;;;5036462;28;20200;-73
2022/05/11 09:11:53;;;;;;;6.82;4.90;;;;;;;;;;5036149;28;20200;-73
2022/05/11 09:14:32;;;;;;;6.35;4.47;;;;;;;;;;5034407;28;20211;-72
2022/05/11 09:17:01;;;;;;;7.43;4.80;;;;;;;;;;5016193;28;20208;-72
2022/05/11 09:19:32;;;;;;;8.50;4.88;;;;;;;;;;5034174;28;20195;-72
2022/05/11 09:22:07;;;;;;;7.93;4.85;;;;;;;;;;5034778;28;20219;-73
2022/05/11 09:24:37;;;;;;;6.63;4.78;;;;;;;;;;5034832;28;20698;-72
2022/05/11 09:27:22;;;;;;;5.85;4.93;;;;;;;;;;5035543;28;20265;-73
2022/05/11 09:29:56;;;;;;;4.82;3.83;;;;;;;;;;5034475;28;20247;-72
2022/05/11 09:32:29;;;;;;;5.97;4.18;;;;;;;;;;5033045;28;20246;-71
2022/05/11 09:35:17;;;;;;;5.13;4.57;;;;;;;;;;5022594;28;20254;-73
2022/05/11 09:37:46;;;;;;;4.47;3.75;;;;;;;;;;5034704;28;20294;-72
2022/05/11 09:40:17;;;;;;;4.72;4.28;;;;;;;;;;5033608;28;20207;-73
2022/05/11 09:42:50;;;;;;;6.10;3.90;;;;;;;;;;5022116;28;20200;-72
2022/05/11 09:45:49;;;;;;;5.28;4.30;;;;;;;;;;5034389;28;20196;-72
2022/05/11 09:48:19;;;;;;;9.60;4.30;;;;;;;;;;4971266;28;20229;-73
2022/05/11 09:50:52;;;;;;;5.68;3.90;;;;;;;;;;5020754;28;20196;-72
2022/05/11 09:53:30;;;;;;;6.78;4.15;;;;;;;;;;5033995;28;20682;-72
2022/05/11 09:56:17;;;;;;;7.80;4.20;;;;;;;;;;5034153;28;20211;-73
2022/05/11 09:58:46;;;;;;;6.45;4.05;;;;;;;;;;5034056;28;20238;-73
2022/05/11 10:01:16;;;;;;;5.88;3.47;;;;;;;;;;5033792;28;20282;-73
2022/05/11 10:03:48;;;;;;;5.63;3.47;;;;;;;;;;5033731;28;20638;-71
2022/05/11 10:06:48;;;;;;;5.00;3.58;;;;;;;;;;5034133;28;20211;-73
2022/05/11 10:09:20;;;;;;;4.65;3.88;;;;;;;;;;5034001;28;20214;-73
2022/05/11 10:11:49;;;;;;;7.55;4.38;;;;;;;;;;5028188;28;20709;-72
2022/05/11 10:22:47;;;;;;;4.22;3.83;;;;;;;;;;5033592;28;20207;-73
2022/05/11 10:25:18;;;;;;;5.30;4.07;;;;;;;;;;5033968;28;20207;-73
2022/05/11 10:27:47;;;;;;;5.63;4.07;;;;;;;;;;5035916;28;20226;-73
2022/05/11 10:30:24;;;;;;;5.72;4.03;;;;;;;;;;5028740;28;20253;-71
2022/05/11 10:33:10;;;;;;;4.13;3.72;;;;;;;;;;5033424;28;20282;-74
2022/05/11 10:35:45;;;;;;;5.90;3.40;;;;;;;;;;5033352;28;20265;-72
2022/05/11 10:38:24;;;;;;;8.02;4.85;;;;;;;;;;5033629;28;20306;-71
2022/05/11 10:40:57;;;;;;;5.80;4.35;;;;;;;;;;5030449;28;20691;-72
2022/05/11 10:43:38;;;;;;;9.70;4.40;;;;;;;;;;5031023;28;20211;-72
2022/05/11 10:46:26;;;;;;;6.18;4.53;;;;;;;;;;5025260;28;20204;-72
2022/05/11 10:49:13;;;;;;;4.63;4.18;;;;;;;;;;5033688;28;20223;-73
2022/05/11 10:51:47;;;;;;;6.55;3.88;;;;;;;;;;5033228;28;20188;-72
2022/05/11 10:54:28;;;;;;;7.00;4.13;;;;;;;;;;5019794;28;20199;-73
2022/05/11 10:57:03;;;;;;;4.63;3.80;;;;;;;;;;5033062;28;20644;-72
2022/05/11 10:59:53;;;;;;;6.70;4.00;;;;;;;;;;5032402;28;20246;-73
2022/05/11 11:02:45;;;;;;;6.88;4.63;;;;;;;;;;5027313;28;20220;-73
2022/05/11 11:05:19;;;;;;;6.88;4.20;;;;;;;;;;4977949;28;20198;-73
2022/05/11 11:07:52;;;;;;;5.82;3.97;;;;;;;;;;5033149;28;20309;-73
2022/05/11 11:10:30;;;;;;;9.77;4.30;;;;;;;;;;5030168;28;20622;-72
2022/05/11 11:13:13;;;;;;;7.05;4.20;;;;;;;;;;5024082;28;20254;-73
2022/05/11 11:15:44;;;;;;;6.28;3.90;;;;;;;;;;5028154;28;20258;-73
2022/05/11 11:18:14;;;;;;;4.82;3.83;;;;;;;;;;5038968;28;20220;-73
2022/05/11 11:20:45;;;;;;;6.25;4.13;;;;;;;;;;5031352;28;20208;-73
2022/05/11 11:23:29;;;;;;;5.40;4.18;;;;;;;;;;5032229;28;20200;-71
2022/05/11 11:26:03;;;;;;;7.60;4.50;;;;;;;;;;5032471;28;20196;-74
2022/05/11 11:28:33;;;;;;;7.78;4.38;;;;;;;;;;5032928;28;20225;-74
2022/05/11 11:31:17;;;;;;;5.18;4.00;;;;;;;;;;5031741;28;20586;-73
2022/05/11 11:34:04;;;;;;;6.50;3.53;;;;;;;;;;5031209;28;20199;-74
2022/05/11 11:36:34;;;;;;;5.07;3.70;;;;;;;;;;5032521;28;20200;-73
2022/05/11 11:39:03;;;;;;;5.43;3.65;;;;;;;;;;5033230;28;20219;-73
2022/05/11 11:41:33;;;;;;;6.28;3.20;;;;;;;;;;5032369;28;20310;-73
2022/05/11 11:44:03;;;;;;;5.65;3.80;;;;;;;;;;5029807;28;20207;-73
2022/05/11 11:46:33;;;;;;;6.60;4.20;;;;;;;;;;5032795;28;20204;-72
2022/05/11 11:49:03;;;;;;;5.70;3.70;;;;;;;;;;5032484;28;20227;-73
2022/05/11 11:51:33;;;;;;;4.80;3.78;;;;;;;;;;5033228;28;20204;-73
2022/05/11 11:54:02;;;;;;;5.55;4.10;;;;;;;;;;5032884;28;20207;-73
2022/05/11 11:56:40;;;;;;;8.00;4.32;;;;;;;;;;5032049;28;20725;-73
2022/05/11 11:59:13;;;;;;;5.53;3.78;;;;;;;;;;5032642;28;20207;-72
2022/05/11 12:01:45;;;;;;;6.40;4.20;;;;;;;;;;5033929;28;20223;-73
2022/05/11 12:04:19;;;;;;;7.13;3.58;;;;;;;;;;5032089;28;20196;-74
2022/05/11 12:16:02;;;;;;;6.25;3.80;;;;;;;;;;5025312;28;20218;-74
2022/05/11 12:18:32;;;;;;;6.40;3.50;;;;;;;;;;5036309;28;20231;-71
2022/05/11 12:21:01;;;;;;;8.35;3.78;;;;;;;;;;5035404;28;20203;-72
2022/05/11 12:23:31;;;;;;;4.32;3.20;;;;;;;;;;5034893;28;20274;-72
2022/05/11 12:26:01;;;;;;;4.30;3.90;;;;;;;;;;5025282;28;20215;-72
2022/05/11 12:28:32;;;;;;;6.85;3.35;;;;;;;;;;5031367;28;20227;-71
2022/05/11 12:31:02;;;;;;;6.03;3.50;;;;;;;;;;5035392;28;20216;-72
2022/05/11 12:33:39;;;;;;;4.53;3.60;;;;;;;;;;5035670;28;20196;-73
2022/05/11 12:36:09;;;;;;;5.85;3.08;;;;;;;;;;5035616;28;20411;-73
2022/05/11 12:38:38;;;;;;;8.30;3.38;;;;;;;;;;5034900;28;20703;-73
2022/05/11 12:41:13;;;;;;;5.90;3.10;;;;;;;;;;5034217;28;20204;-72
2022/05/11 12:43:43;;;;;;;5.68;2.70;;;;;;;;;;5025696;28;20298;-72
2022/05/11 12:46:15;;;;;;;5.78;3.20;;;;;;;;;;5029766;28;20215;-72
2022/05/11 12:48:44;;;;;;;3.72;3.22;;;;;;;;;;5032889;28;20576;-73
2022/05/11 12:51:14;;;;;;;4.55;2.88;;;;;;;;;;5033300;28;20200;-72
2022/05/11 12:53:49;;;;;;;5.10;3.20;;;;;;;;;;5033537;28;20203;-73
2022/05/11 12:56:19;;;;;;;4.88;2.70;;;;;;;;;;5034105;28;20273;-72
2022/05/11 12:58:49;;;;;;;4.32;3.00;;;;;;;;;;5035442;28;20226;-73
2022/05/11 13:01:21;;;;;;;6.07;2.70;;;;;;;;;;5025810;28;20204;-72
2022/05/11 13:03:51;;;;;;;5.28;2.65;;;;;;;;;;5031043;28;20319;-72
2022/05/11 13:06:24;;;;;;;3.15;2.85;;;;;;;;;;5033756;28;20230;-71
2022/05/11 13:08:54;;;;;;;4.78;2.40;;;;;;;;;;5032290;28;20223;-72
2022/05/11 13:11:24;;;;;;;5.25;2.80;;;;;;;;;;5033556;28;20261;-73
2022/05/11 13:13:55;;;;;;;3.95;2.58;;;;;;;;;;5033140;28;20192;-71
2022/05/11 13:16:28;;;;;;;3.40;2.40;;;;;;;;;;5033939;28;20208;-72
2022/05/11 13:19:05;;;;;;;2.95;2.60;;;;;;;;;;5034115;28;20227;-73
2022/05/11 13:21:36;;;;;;;3.55;2.47;;;;;;;;;;5033909;28;20207;-73
2022/05/11 13:24:05;;;;;;;3.22;2.40;;;;;;;;;;5031096;28;20274;-73
2022/05/11 13:26:38;;;;;;;6.38;2.92;;;;;;;;;;5034013;28;20207;-73
2022/05/11 13:29:16;;;;;;;6.10;2.80;;;;;;;;;;5034210;28;20561;-73
2022/05/11 13:31:47;;;;;;;3.85;2.47;;;;;;;;;;5026943;28;20658;-72
2022/05/11 13:34:33;;;;;;;4.28;2.45;;;;;;;;;;5039699;28;20599;-72
2022/05/11 13:37:03;;;;;;;3.85;2.70;;;;;;;;;;5033944;28;20231;-73
2022/05/11 13:39:35;;;;;;;5.00;2.30;;;;;;;;;;5034530;28;20216;-73
2022/05/11 13:42:05;;;;;;;4.65;2.22;;;;;;;;;;5032874;28;20204;-72
2022/05/11 13:44:36;;;;;;;7.07;2.65;;;;;;;;;;5034656;28;20203;-71
2022/05/11 13:50:15;;;;;;;3.75;2.47;;;;;;;;;;5028225;28;20647;-72
2022/05/11 13:52:51;;;;;;;3.17;2.67;;;;;;;;;;5028952;28;20246;-72
2022/05/11 13:55:23;;;;;;;3.90;2.65;;;;;;;;;;5033903;28;20211;-72
2022/05/11 13:57:52;;;;;;;4.40;2.40;;;;;;;;;;5031825;28;20219;-71
2022/05/11 14:00:24;;;;;;;3.13;2.05;;;;;;;;;;5027098;28;20211;-72
2022/05/11 14:02:56;;;;;;;4.15;2.38;;;;;;;;;;5031199;28;20220;-72
2022/05/11 14:05:25;;;;;;;5.35;2.65;;;;;;;;;;5031904;28;20751;-74
2022/05/11 14:07:54;;;;;;;3.75;2.30;;;;;;;;;;5031915;28;20224;-72
2022/05/11 14:10:22;;;;;;;3.75;2.33;;;;;;;;;;5030403;28;20196;-72
2022/05/11 14:12:51;;;;;;;3.90;2.42;;;;;;;;;;5030028;28;20254;-72
2022/05/11 14:15:19;;;;;;;5.50;2.30;;;;;;;;;;5029820;28;20651;-72
2022/05/11 14:17:49;;;;;;;3.85;2.17;;;;;;;;;;5028880;28;20231;-72
2022/05/11 14:20:22;;;;;;;5.13;2.25;;;;;;;;;;5029436;28;20199;-73
2022/05/11 14:22:59;;;;;;;4.20;2.17;;;;;;;;;;5033162;28;20273;-72
2022/05/11 14:25:28;;;;;;;4.00;2.50;;;;;;;;;;5029556;28;20694;-72
2022/05/11 14:28:16;;;;;;;4.05;2.45;;;;;;;;;;5028335;28;20313;-74
2022/05/11 14:30:46;;;;;;;4.90;2.28;;;;;;;;;;5030827;28;20278;-73
2022/05/11 14:33:15;;;;;;;2.88;2.03;;;;;;;;;;5030966;28;20202;-73
2022/05/11 14:35:46;;;;;;;3.70;2.53;;;;;;;;;;5035209;28;20251;-73
2022/05/11 14:38:15;;;;;;;7.75;2.67;;;;;;;;;;5028425;28;20223;-73
2022/05/11 14:40:44;;;;;;;6.25;2.33;;;;;;;;;;5025822;28;22057;-73
2022/05/11 14:43:12;;;;;;;4.72;2.45;;;;;;;;;;5031902;28;20227;-72
2022/05/11 14:45:41;;;;;;;4.35;2.20;;;;;;;;;;5029549;28;20204;-73
2022/05/11 14:48:14;;;;;;;5.22;2.20;;;;;;;;;;5026870;28;20278;-72
2022/05/11 14:50:43;;;;;;;4.78;2.08;;;;;;;;;;5028926;28;20220;-73
2022/05/11 14:53:13;;;;;;;5.18;2.15;;;;;;;;;;5031373;28;20196;-73
2022/05/11 14:55:42;;;;;;;4.47;1.95;;;;;;;;;;5034184;28;20204;-73
2022/05/11 15:03:44;;;;;;;5.45;2.03;;;;;;;;;;5031682;28;20249;-72
2022/05/11 15:06:15;;;;;;;7.18;1.85;;;;;;;;;;5028314;28;20595;-73
2022/05/11 15:08:46;;;;;;;2.67;2.08;;;;;;;;;;5028072;28;20269;-73
2022/05/11 15:14:08;;;;;;;3.33;2.00;;;;;;;;;;5031448;28;20204;-73
2022/05/11 15:16:37;;;;;;;4.95;1.92;;;;;;;;;;5027700;28;20618;-72
2022/05/11 15:19:06;;;;;;;4.22;2.10;;;;;;;;;;5029750;28;20216;-73
2022/05/11 15:21:35;;;;;;;7.20;2.22;;;;;;;;;;5028602;28;20200;-73
2022/05/11 15:24:06;;;;;;;3.50;2.10;;;;;;;;;;5032220;28;20227;-72
2022/05/11 15:26:35;;;;;;;7.10;2.28;;;;;;;;;;5031220;28;20290;-72
2022/05/11 15:29:03;;;;;;;4.40;2.00;;;;;;;;;;5031033;28;20687;-73
2022/05/11 15:31:32;;;;;;;4.22;2.00;;;;;;;;;;5027514;28;20254;-72
2022/05/11 15:34:03;;;;;;;4.75;1.90;;;;;;;;;;5030022;28;20250;-72
2022/05/11 15:36:31;;;;;;;4.30;2.05;;;;;;;;;;5037306;28;20254;-73
2022/05/11 15:39:01;;;;;;;4.38;1.90;;;;;;;;;;5045570;28;20714;-73
2022/05/11 15:41:31;;;;;;;3.15;1.80;;;;;;;;;;5044802;28;20665;-72
2022/05/11 15:44:00;;;;;;;4.53;2.17;;;;;;;;;;5030689;28;20223;-72
2022/05/11 15:46:29;;;;;;;2.80;1.73;;;;;;;;;;5041781;28;20203;-72
2022/05/11 15:48:57;;;;;;;3.95;2.10;;;;;;;;;;5056273;28;20643;-72
2022/05/11 15:51:26;;;;;;;3.05;1.88;;;;;;;;;;5039906;28;20200;-73